Meath Environmental Platform

Observations

Time Sensor AQI SAQ Temp °C Hum % Pres Pa CO μg/m³ H₂S μg/m³ NO μg/m³ NO₂ μg/m³ O₃ μg/m³ SO₂ μg/m³ CO₂e PPM VOC PPM PM1 μg/m³ PM2.5 μg/m³ PM4 μg/m³ PM10 μg/m³ TPS µm
Wednesday 12 August 2026
18:18 Trim Market St 3 34 33 66,515 0 4.64 0.12 15.61 81.75 0 1.43 4.25 4.67
18:17 Trim Market St 3 34 33 66,519 0 4.27 0.13 13.5 83.25 0 2.85 5.87 6.45
18:16 Trim Patrick St 3 39.1 28 69,858 0 0 0 12.94 82.02 25.52 3.71 10.22 11.24
18:16 Trim Market St 3 34 33 66,521 0 6.72 0.12 16.6 70.86 0 1.43 5.33 5.86
18:15 Trim Patrick St 3 39.2 28 69,854 0 0 0 12.88 80.14 26.8 4.57 11.07 12.18
18:14 Trim Patrick St 3 39.2 28 69,846 0 0 0 14.04 112 26.25 4.57 11.89 13.08
18:13 Trim Patrick St 3 39.2 27 69,832 0 0 0 13.35 85.12 25.11 3.71 10.28 11.31
18:12 Trim Patrick St 3 39.2 28 69,844 0 0 0 13.37 129.82 26.39 4.57 11.86 13.04
18:11 Trim Patrick St 3 39.1 28 69,830 0 0 0 12.66 87.23 26.43 3.71 10.22 11.24
18:11 Trim Market St 3 34.1 33 66,531 0 9.76 0.1 19.28 99.51 0 1.43 5.34 7.52
18:10 Trim Patrick St 3 38.9 28 69,844 0 0 0 12.23 79.55 25.8 4.57 11.88 13.07
18:09 Trim Market St 3 34.1 33 66,517 0 3.8 0.1 14.77 89 0 2.85 5.89 7.52
18:08 Trim Patrick St 3 38.7 29 69,850 0 0 0 13.23 87.18 25.32 4.57 10.99 12.09
18:08 Trim Market St 3 34.1 33 66,519 0 0 0.1 13.41 69.89 0 3.56 6.42 7.52
18:07 Trim Patrick St 3 38.7 29 69,842 0 0 0 13.36 111.08 26.15 5.43 11.75 12.92
18:06 Trim Patrick St 3 38.6 29 69,834 0 0 0 13.26 86.28 24.23 3.71 10.17 11.19
18:05 Trim Market St 3 34.2 33 66,503 0 10.96 0.08 25.7 64.2 0 0.71 4.26 4.69
18:04 Trim Patrick St 3 38.5 29 69,850 0 0 0 13.31 104.76 25.46 4.57 11.76 12.94
18:03 Trim Patrick St 3 38.4 29 69,842 0 0 0 13.16 79.31 25.69 4.57 10.96 12.06
18:02 Trim Patrick St 3 38.3 29 69,834 0 4.79 0 13.43 87.46 26.23 3.71 10.13 11.15